sensor_id;sensor_type;location;lat;lon;timestamp;pressure;altitude;pressure_sealevel;temperature;humidity
9717;BME280;4897;43.570;27.832;2024-01-10T00:01:47;100475.94;;;-7.03;100.00
9717;BME280;4897;43.570;27.832;2024-01-10T00:04:14;100486.34;;;-7.00;100.00
9717;BME280;4897;43.570;27.832;2024-01-10T00:06:43;100482.03;;;-7.01;100.00
9717;BME280;4897;43.570;27.832;2024-01-10T00:09:10;100171.84;;;-8.79;100.00
9717;BME280;4897;43.570;27.832;2024-01-10T00:11:37;100449.81;;;-7.23;100.00
9717;BME280;4897;43.570;27.832;2024-01-10T00:14:04;100382.00;;;-7.61;100.00
9717;BME280;4897;43.570;27.832;2024-01-10T00:16:31;100472.44;;;-7.11;100.00
9717;BME280;4897;43.570;27.832;2024-01-10T00:18:58;100465.41;;;-7.24;100.00
9717;BME280;4897;43.570;27.832;2024-01-10T00:21:25;100470.53;;;-7.34;100.00
9717;BME280;4897;43.570;27.832;2024-01-10T00:23:53;100364.31;;;-8.07;100.00
9717;BME280;4897;43.570;27.832;2024-01-10T00:26:20;100450.44;;;-7.54;100.00
9717;BME280;4897;43.570;27.832;2024-01-10T00:28:47;100474.91;;;-7.28;100.00
9717;BME280;4897;43.570;27.832;2024-01-10T00:31:14;100480.06;;;-7.29;100.00
9717;BME280;4897;43.570;27.832;2024-01-10T00:33:41;100488.78;;;-7.26;100.00
9717;BME280;4897;43.570;27.832;2024-01-10T00:36:07;100474.91;;;-7.28;100.00
9717;BME280;4897;43.570;27.832;2024-01-10T00:38:34;100452.22;;;-7.49;100.00
9717;BME280;4897;43.570;27.832;2024-01-10T00:41:03;100423.47;;;-7.74;100.00
9717;BME280;4897;43.570;27.832;2024-01-10T00:43:30;100445.16;;;-7.66;100.00
9717;BME280;4897;43.570;27.832;2024-01-10T00:45:57;100472.84;;;-7.65;100.00
9717;BME280;4897;43.570;27.832;2024-01-10T00:48:24;100419.84;;;-7.93;100.00
9717;BME280;4897;43.570;27.832;2024-01-10T00:50:51;100366.78;;;-8.28;100.00
9717;BME280;4897;43.570;27.832;2024-01-10T00:53:18;100441.53;;;-7.83;100.00
9717;BME280;4897;43.570;27.832;2024-01-10T00:55:45;100544.88;;;-7.49;100.00
9717;BME280;4897;43.570;27.832;2024-01-10T00:58:13;100486.94;;;-7.41;100.00
9717;BME280;4897;43.570;27.832;2024-01-10T01:00:40;100479.91;;;-7.52;100.00
9717;BME280;4897;43.570;27.832;2024-01-10T01:03:07;100438.94;;;-7.82;100.00
9717;BME280;4897;43.570;27.832;2024-01-10T01:05:34;100480.59;;;-7.71;100.00
9717;BME280;4897;43.570;27.832;2024-01-10T01:08:01;100318.69;;;-8.81;100.00
9717;BME280;4897;43.570;27.832;2024-01-10T01:10:27;100400.41;;;-8.34;100.00
9717;BME280;4897;43.570;27.832;2024-01-10T01:12:54;100462.97;;;-8.04;100.00
9717;BME280;4897;43.570;27.832;2024-01-10T01:15:23;100482.13;;;-7.93;100.00
9717;BME280;4897;43.570;27.832;2024-01-10T01:17:50;100442.06;;;-8.19;100.00
9717;BME280;4897;43.570;27.832;2024-01-10T01:20:17;100445.44;;;-8.29;100.00
9717;BME280;4897;43.570;27.832;2024-01-10T01:22:44;100422.94;;;-8.33;100.00
9717;BME280;4897;43.570;27.832;2024-01-10T01:25:11;100476.91;;;-7.96;100.00
9717;BME280;4897;43.570;27.832;2024-01-10T01:27:38;100478.59;;;-7.98;100.00
9717;BME280;4897;43.570;27.832;2024-01-10T01:30:06;100481.13;;;-8.05;100.00
9717;BME280;4897;43.570;27.832;2024-01-10T01:32:35;100454.38;;;-8.00;100.00
9717;BME280;4897;43.570;27.832;2024-01-10T01:35:03;100470.91;;;-7.89;100.00
9717;BME280;4897;43.570;27.832;2024-01-10T01:37:30;100428.13;;;-8.30;100.00
9717;BME280;4897;43.570;27.832;2024-01-10T01:39:57;100443.88;;;-8.12;100.00
9717;BME280;4897;43.570;27.832;2024-01-10T01:42:24;100457.75;;;-8.07;100.00
9717;BME280;4897;43.570;27.832;2024-01-10T01:44:51;100471.75;;;-7.93;100.00
9717;BME280;4897;43.570;27.832;2024-01-10T01:47:18;100472.59;;;-7.92;100.00
9717;BME280;4897;43.570;27.832;2024-01-10T01:49:47;100426.53;;;-8.16;100.00
9717;BME280;4897;43.570;27.832;2024-01-10T01:52:13;100427.34;;;-8.20;100.00
9717;BME280;4897;43.570;27.832;2024-01-10T01:54:41;100437.69;;;-8.25;100.00
9717;BME280;4897;43.570;27.832;2024-01-10T01:57:08;100349.91;;;-8.69;100.00
9717;BME280;4897;43.570;27.832;2024-01-10T01:59:37;100467.28;;;-8.04;100.00
9717;BME280;4897;43.570;27.832;2024-01-10T02:02:04;100387.44;;;-8.34;100.00
9717;BME280;4897;43.570;27.832;2024-01-10T02:04:31;100409.06;;;-8.35;100.00
9717;BME280;4897;43.570;27.832;2024-01-10T02:06:59;100396.81;;;-8.48;100.00
9717;BME280;4897;43.570;27.832;2024-01-10T02:09:26;100432.50;;;-8.22;100.00
9717;BME280;4897;43.570;27.832;2024-01-10T02:11:53;100470.69;;;-8.10;100.00
9717;BME280;4897;43.570;27.832;2024-01-10T02:14:21;100417.75;;;-8.30;100.00
9717;BME280;4897;43.570;27.832;2024-01-10T02:16:47;100448.22;;;-8.09;100.00
9717;BME280;4897;43.570;27.832;2024-01-10T02:19:18;100447.22;;;-8.22;100.00
9717;BME280;4897;43.570;27.832;2024-01-10T02:21:45;100461.16;;;-8.11;100.00
9717;BME280;4897;43.570;27.832;2024-01-10T02:24:14;100424.72;;;-8.22;100.00
9717;BME280;4897;43.570;27.832;2024-01-10T02:26:43;100451.66;;;-8.12;100.00
9717;BME280;4897;43.570;27.832;2024-01-10T02:29:10;100445.56;;;-8.16;100.00
9717;BME280;4897;43.570;27.832;2024-01-10T02:31:37;100453.41;;;-8.09;100.00
9717;BME280;4897;43.570;27.832;2024-01-10T02:34:04;100441.28;;;-8.10;100.00
9717;BME280;4897;43.570;27.832;2024-01-10T02:36:31;100457.66;;;-8.16;100.00
9717;BME280;4897;43.570;27.832;2024-01-10T02:38:58;100451.59;;;-8.17;100.00
9717;BME280;4897;43.570;27.832;2024-01-10T02:41:25;100443.81;;;-8.15;100.00
9717;BME280;4897;43.570;27.832;2024-01-10T02:43:54;100362.81;;;-8.75;100.00
9717;BME280;4897;43.570;27.832;2024-01-10T02:46:24;100438.56;;;-8.27;100.00
9717;BME280;4897;43.570;27.832;2024-01-10T02:48:53;100286.28;;;-9.21;100.00
9717;BME280;4897;43.570;27.832;2024-01-10T02:51:20;100342.44;;;-9.19;100.00
9717;BME280;4897;43.570;27.832;2024-01-10T02:53:47;100480.16;;;-8.15;100.00
9717;BME280;4897;43.570;27.832;2024-01-10T02:56:14;100363.22;;;-9.13;100.00
9717;BME280;4897;43.570;27.832;2024-01-10T02:58:41;100442.00;;;-8.28;100.00
9717;BME280;4897;43.570;27.832;2024-01-10T03:01:09;100430.59;;;-8.44;100.00
9717;BME280;4897;43.570;27.832;2024-01-10T03:03:36;100461.03;;;-8.25;100.00
9717;BME280;4897;43.570;27.832;2024-01-10T03:06:03;100405.41;;;-8.52;100.00
9717;BME280;4897;43.570;27.832;2024-01-10T03:08:30;100455.88;;;-8.26;100.00
9717;BME280;4897;43.570;27.832;2024-01-10T03:10:57;100403.53;;;-8.65;100.00
9717;BME280;4897;43.570;27.832;2024-01-10T03:13:24;100435.66;;;-8.54;100.00
9717;BME280;4897;43.570;27.832;2024-01-10T03:15:51;100450.66;;;-8.23;100.00
9717;BME280;4897;43.570;27.832;2024-01-10T03:18:19;100448.94;;;-8.24;100.00
9717;BME280;4897;43.570;27.832;2024-01-10T03:20:46;100358.50;;;-8.76;100.00
9717;BME280;4897;43.570;27.832;2024-01-10T03:23:13;100392.34;;;-8.61;100.00
9717;BME280;4897;43.570;27.832;2024-01-10T03:25:40;100450.69;;;-8.26;100.00
9717;BME280;4897;43.570;27.832;2024-01-10T03:28:06;100451.59;;;-8.18;100.00
9717;BME280;4897;43.570;27.832;2024-01-10T03:30:34;100452.44;;;-8.19;100.00
9717;BME280;4897;43.570;27.832;2024-01-10T03:33:00;100462.78;;;-8.22;100.00
9717;BME280;4897;43.570;27.832;2024-01-10T03:35:29;100447.25;;;-8.19;100.00
9717;BME280;4897;43.570;27.832;2024-01-10T03:37:56;100448.94;;;-8.21;100.00
9717;BME280;4897;43.570;27.832;2024-01-10T03:40:23;100444.56;;;-8.30;100.00
9717;BME280;4897;43.570;27.832;2024-01-10T03:42:50;100458.50;;;-8.19;100.00
9717;BME280;4897;43.570;27.832;2024-01-10T03:45:17;100436.84;;;-8.22;100.00
9717;BME280;4897;43.570;27.832;2024-01-10T03:47:46;100455.06;;;-8.16;100.00
9717;BME280;4897;43.570;27.832;2024-01-10T03:50:15;100452.44;;;-8.19;100.00
9717;BME280;4897;43.570;27.832;2024-01-10T03:52:44;100447.09;;;-8.37;100.00
9717;BME280;4897;43.570;27.832;2024-01-10T03:55:11;100443.69;;;-8.30;100.00
9717;BME280;4897;43.570;27.832;2024-01-10T03:57:40;100437.59;;;-8.35;100.00
9717;BME280;4897;43.570;27.832;2024-01-10T04:00:08;100461.22;;;-8.06;100.00
9717;BME280;4897;43.570;27.832;2024-01-10T04:02:36;100441.03;;;-8.36;100.00
9717;BME280;4897;43.570;27.832;2024-01-10T04:05:06;100471.59;;;-8.05;100.00
9717;BME280;4897;43.570;27.832;2024-01-10T04:07:36;100464.75;;;-8.00;100.00
9717;BME280;4897;43.570;27.832;2024-01-10T04:10:05;100457.84;;;-7.96;100.00
9717;BME280;4897;43.570;27.832;2024-01-10T04:12:35;100418.66;;;-8.28;100.00
9717;BME280;4897;43.570;27.832;2024-01-10T04:15:03;100436.13;;;-8.07;100.00
9717;BME280;4897;43.570;27.832;2024-01-10T04:17:30;100473.41;;;-7.98;100.00
9717;BME280;4897;43.570;27.832;2024-01-10T04:19:57;100456.28;;;-7.78;100.00
9717;BME280;4897;43.570;27.832;2024-01-10T04:22:24;100455.44;;;-7.78;100.00
9717;BME280;4897;43.570;27.832;2024-01-10T04:24:51;100484.88;;;-7.76;100.00
9717;BME280;4897;43.570;27.832;2024-01-10T04:27:20;100477.63;;;-8.09;100.00
9717;BME280;4897;43.570;27.832;2024-01-10T04:29:47;100480.53;;;-7.76;100.00
9717;BME280;4897;43.570;27.832;2024-01-10T04:32:14;100414.50;;;-8.08;100.00
9717;BME280;4897;43.570;27.832;2024-01-10T04:34:41;100471.88;;;-7.78;100.00
9717;BME280;4897;43.570;27.832;2024-01-10T04:37:08;100479.69;;;-7.73;100.00
9717;BME280;4897;43.570;27.832;2024-01-10T04:39:35;100477.09;;;-7.75;100.00
9717;BME280;4897;43.570;27.832;2024-01-10T04:42:04;100475.34;;;-7.76;100.00
9717;BME280;4897;43.570;27.832;2024-01-10T04:44:33;100442.97;;;-8.14;100.00
9717;BME280;4897;43.570;27.832;2024-01-10T04:46:59;100363.88;;;-8.58;100.00
9717;BME280;4897;43.570;27.832;2024-01-10T04:49:26;100284.72;;;-9.09;100.00
9717;BME280;4897;43.570;27.832;2024-01-10T04:51:53;100462.09;;;-8.03;100.00
9717;BME280;4897;43.570;27.832;2024-01-10T04:54:20;100487.22;;;-8.03;100.00
9717;BME280;4897;43.570;27.832;2024-01-10T04:56:47;100491.56;;;-7.98;100.00
9717;BME280;4897;43.570;27.832;2024-01-10T04:59:14;100451.47;;;-8.32;100.00
9717;BME280;4897;43.570;27.832;2024-01-10T05:01:43;100421.88;;;-8.49;100.00
9717;BME280;4897;43.570;27.832;2024-01-10T05:04:09;100505.34;;;-8.05;100.00
9717;BME280;4897;43.570;27.832;2024-01-10T05:06:36;100432.22;;;-8.52;100.00
9717;BME280;4897;43.570;27.832;2024-01-10T05:09:03;100480.06;;;-8.24;100.00
9717;BME280;4897;43.570;27.832;2024-01-10T05:11:32;100496.53;;;-8.19;100.00
9717;BME280;4897;43.570;27.832;2024-01-10T05:14:01;100514.59;;;-8.31;100.00
9717;BME280;4897;43.570;27.832;2024-01-10T05:16:28;100493.78;;;-8.34;100.00
9717;BME280;4897;43.570;27.832;2024-01-10T05:18:57;100467.66;;;-8.52;100.00
9717;BME280;4897;43.570;27.832;2024-01-10T05:21:24;100505.19;;;-8.20;100.00
9717;BME280;4897;43.570;27.832;2024-01-10T05:23:52;100389.44;;;-8.88;100.00
9717;BME280;4897;43.570;27.832;2024-01-10T05:26:19;100454.69;;;-8.51;100.00
9717;BME280;4897;43.570;27.832;2024-01-10T05:28:45;100427.47;;;-8.87;100.00
9717;BME280;4897;43.570;27.832;2024-01-10T05:31:12;100503.25;;;-8.39;100.00
9717;BME280;4897;43.570;27.832;2024-01-10T05:33:39;100521.56;;;-8.26;100.00
9717;BME280;4897;43.570;27.832;2024-01-10T05:36:09;100519.59;;;-8.46;100.00
9717;BME280;4897;43.570;27.832;2024-01-10T05:38:38;100510.28;;;-8.31;100.00
9717;BME280;4897;43.570;27.832;2024-01-10T05:41:05;100411.88;;;-8.90;100.00
9717;BME280;4897;43.570;27.832;2024-01-10T05:43:33;100447.50;;;-8.74;100.00
9717;BME280;4897;43.570;27.832;2024-01-10T05:46:00;100442.19;;;-8.83;100.00
9717;BME280;4897;43.570;27.832;2024-01-10T05:48:30;100521.66;;;-8.15;100.00
9717;BME280;4897;43.570;27.832;2024-01-10T05:50:57;100515.63;;;-8.16;100.00
9717;BME280;4897;43.570;27.832;2024-01-10T05:53:25;100540.00;;;-8.01;100.00
9717;BME280;4897;43.570;27.832;2024-01-10T05:55:52;100478.22;;;-8.34;100.00
9717;BME280;4897;43.570;27.832;2024-01-10T05:58:19;100529.69;;;-7.92;100.00
9717;BME280;4897;43.570;27.832;2024-01-10T06:00:46;100534.03;;;-7.93;100.00
9717;BME280;4897;43.570;27.832;2024-01-10T06:03:13;100333.03;;;-9.14;100.00
9717;BME280;4897;43.570;27.832;2024-01-10T06:05:40;100367.72;;;-8.98;100.00
9717;BME280;4897;43.570;27.832;2024-01-10T06:08:08;100539.28;;;-7.87;100.00
9717;BME280;4897;43.570;27.832;2024-01-10T06:10:36;100476.56;;;-8.29;100.00
9717;BME280;4897;43.570;27.832;2024-01-10T06:13:03;100543.72;;;-7.74;100.00
9717;BME280;4897;43.570;27.832;2024-01-10T06:15:30;100542.88;;;-7.73;100.00
9717;BME280;4897;43.570;27.832;2024-01-10T06:17:57;100538.66;;;-7.63;100.00
9717;BME280;4897;43.570;27.832;2024-01-10T06:20:24;100509.88;;;-7.86;100.00
9717;BME280;4897;43.570;27.832;2024-01-10T06:22:51;100427.25;;;-8.32;100.00
9717;BME280;4897;43.570;27.832;2024-01-10T06:25:18;100499.63;;;-7.71;100.00
9717;BME280;4897;43.570;27.832;2024-01-10T06:27:46;100488.41;;;-7.68;100.00
9717;BME280;4897;43.570;27.832;2024-01-10T06:30:13;100561.53;;;-7.24;100.00
9717;BME280;4897;43.570;27.832;2024-01-10T06:32:43;100526.75;;;-7.43;100.00
9717;BME280;4897;43.570;27.832;2024-01-10T06:35:10;100519.78;;;-7.47;100.00
9717;BME280;4897;43.570;27.832;2024-01-10T06:37:37;100544.09;;;-7.41;100.00
9717;BME280;4897;43.570;27.832;2024-01-10T06:40:08;100567.66;;;-7.16;100.00
9717;BME280;4897;43.570;27.832;2024-01-10T06:42:35;100580.56;;;-7.28;100.00
9717;BME280;4897;43.570;27.832;2024-01-10T06:45:05;100508.47;;;-7.55;100.00
9717;BME280;4897;43.570;27.832;2024-01-10T06:47:33;100575.50;;;-7.10;100.00
9717;BME280;4897;43.570;27.832;2024-01-10T06:50:01;100529.34;;;-7.43;100.00
9717;BME280;4897;43.570;27.832;2024-01-10T06:52:30;100556.38;;;-7.18;100.00
9717;BME280;4897;43.570;27.832;2024-01-10T06:54:56;100496.25;;;-7.62;100.00
9717;BME280;4897;43.570;27.832;2024-01-10T06:57:23;100509.53;;;-7.30;100.00
9717;BME280;4897;43.570;27.832;2024-01-10T06:59:50;100550.38;;;-7.13;100.00
9717;BME280;4897;43.570;27.832;2024-01-10T07:02:19;100587.94;;;-6.76;100.00
9717;BME280;4897;43.570;27.832;2024-01-10T07:04:46;100584.41;;;-6.80;100.00
9717;BME280;4897;43.570;27.832;2024-01-10T07:07:14;100409.69;;;-7.63;100.00
9717;BME280;4897;43.570;27.832;2024-01-10T07:09:42;100429.78;;;-7.39;100.00
9717;BME280;4897;43.570;27.832;2024-01-10T07:12:09;100562.75;;;-6.79;100.00
9717;BME280;4897;43.570;27.832;2024-01-10T07:14:36;100569.91;;;-6.49;100.00
9717;BME280;4897;43.570;27.832;2024-01-10T07:17:04;100547.97;;;-6.87;100.00
9717;BME280;4897;43.570;27.832;2024-01-10T07:19:32;100563.91;;;-6.34;100.00
9717;BME280;4897;43.570;27.832;2024-01-10T07:21:59;100538.69;;;-6.46;100.00
9717;BME280;4897;43.570;27.832;2024-01-10T07:24:26;100588.34;;;-6.04;100.00
9717;BME280;4897;43.570;27.832;2024-01-10T07:26:53;100549.25;;;-6.10;100.00
9717;BME280;4897;43.570;27.832;2024-01-10T07:29:22;100513.66;;;-6.18;100.00
9717;BME280;4897;43.570;27.832;2024-01-10T07:31:49;100525.00;;;-5.94;100.00
9717;BME280;4897;43.570;27.832;2024-01-10T07:34:18;100514.53;;;-6.09;100.00
9717;BME280;4897;43.570;27.832;2024-01-10T07:36:48;100525.91;;;-5.89;100.00
9717;BME280;4897;43.570;27.832;2024-01-10T07:39:15;100537.19;;;-5.81;100.00
9717;BME280;4897;43.570;27.832;2024-01-10T07:41:43;100539.81;;;-5.64;100.00
9717;BME280;4897;43.570;27.832;2024-01-10T07:44:13;100565.91;;;-5.46;100.00
9717;BME280;4897;43.570;27.832;2024-01-10T07:46:40;100599.84;;;-5.20;100.00
9717;BME280;4897;43.570;27.832;2024-01-10T07:49:07;100559.84;;;-5.34;100.00
9717;BME280;4897;43.570;27.832;2024-01-10T07:51:34;100527.69;;;-5.44;100.00
9717;BME280;4897;43.570;27.832;2024-01-10T07:54:02;100590.28;;;-5.06;100.00
9717;BME280;4897;43.570;27.832;2024-01-10T07:56:30;100604.22;;;-4.91;100.00
9717;BME280;4897;43.570;27.832;2024-01-10T07:58:57;100593.78;;;-4.95;100.00
9717;BME280;4897;43.570;27.832;2024-01-10T08:01:24;100559.88;;;-5.01;100.00
9717;BME280;4897;43.570;27.832;2024-01-10T08:03:51;100565.06;;;-4.95;100.00
9717;BME280;4897;43.570;27.832;2024-01-10T08:06:18;100596.38;;;-4.74;100.00
9717;BME280;4897;43.570;27.832;2024-01-10T08:08:45;100606.78;;;-4.62;100.00
9717;BME280;4897;43.570;27.832;2024-01-10T08:11:14;100584.19;;;-4.57;100.00
9717;BME280;4897;43.570;27.832;2024-01-10T08:13:40;100598.06;;;-4.44;100.00
9717;BME280;4897;43.570;27.832;2024-01-10T08:16:07;100597.22;;;-4.45;100.00
9717;BME280;4897;43.570;27.832;2024-01-10T08:18:35;100512.88;;;-4.92;100.00
9717;BME280;4897;43.570;27.832;2024-01-10T08:21:05;100618.09;;;-4.45;100.00
9717;BME280;4897;43.570;27.832;2024-01-10T08:23:31;100562.44;;;-4.62;100.00
9717;BME280;4897;43.570;27.832;2024-01-10T08:25:59;100593.69;;;-4.24;100.00
9717;BME280;4897;43.570;27.832;2024-01-10T08:28:27;100538.09;;;-4.64;100.00
9717;BME280;4897;43.570;27.832;2024-01-10T08:30:54;100534.56;;;-4.52;100.00
9717;BME280;4897;43.570;27.832;2024-01-10T08:33:21;100598.84;;;-4.08;100.00
9717;BME280;4897;43.570;27.832;2024-01-10T08:35:48;100617.13;;;-3.98;100.00
9717;BME280;4897;43.570;27.832;2024-01-10T08:38:15;100552.81;;;-4.42;100.00
9717;BME280;4897;43.570;27.832;2024-01-10T08:40:42;100423.38;;;-5.02;100.00
9717;BME280;4897;43.570;27.832;2024-01-10T08:43:09;100443.31;;;-4.75;100.00
9717;BME280;4897;43.570;27.832;2024-01-10T08:45:38;100556.28;;;-4.31;100.00
9717;BME280;4897;43.570;27.832;2024-01-10T08:48:05;100571.88;;;-4.13;100.00
9717;BME280;4897;43.570;27.832;2024-01-10T08:50:33;100479.78;;;-4.60;100.00
9717;BME280;4897;43.570;27.832;2024-01-10T08:53:00;100535.25;;;-3.99;100.00
9717;BME280;4897;43.570;27.832;2024-01-10T08:55:29;100591.66;;;-3.56;100.00
9717;BME280;4897;43.570;27.832;2024-01-10T08:57:56;100589.84;;;-3.46;100.00
9717;BME280;4897;43.570;27.832;2024-01-10T09:00:23;100547.22;;;-3.59;100.00
9717;BME280;4897;43.570;27.832;2024-01-10T09:02:52;100573.88;;;-3.01;100.00
9717;BME280;4897;43.570;27.832;2024-01-10T09:05:19;100421.50;;;-2.48;100.00
9717;BME280;4897;43.570;27.832;2024-01-10T09:07:47;100540.91;;;-0.54;100.00
9717;BME280;4897;43.570;27.832;2024-01-10T09:10:16;100553.56;;;-0.28;100.00
9717;BME280;4897;43.570;27.832;2024-01-10T09:12:43;100549.53;;;0.40;100.00
9717;BME280;4897;43.570;27.832;2024-01-10T09:15:12;100524.81;;;0.07;100.00
9717;BME280;4897;43.570;27.832;2024-01-10T09:17:40;100548.34;;;0.13;100.00
9717;BME280;4897;43.570;27.832;2024-01-10T09:20:12;100563.47;;;0.45;100.00
9717;BME280;4897;43.570;27.832;2024-01-10T09:22:39;100544.31;;;-0.49;100.00
9717;BME280;4897;43.570;27.832;2024-01-10T09:25:07;100552.53;;;0.23;100.00
9717;BME280;4897;43.570;27.832;2024-01-10T09:27:34;100537.78;;;0.93;100.00
9717;BME280;4897;43.570;27.832;2024-01-10T09:30:02;100540.91;;;0.71;100.00
9717;BME280;4897;43.570;27.832;2024-01-10T09:32:34;100525.75;;;0.44;100.00
9717;BME280;4897;43.570;27.832;2024-01-10T09:35:02;100520.47;;;-0.38;100.00
9717;BME280;4897;43.570;27.832;2024-01-10T09:37:31;100525.47;;;0.56;100.00
9717;BME280;4897;43.570;27.832;2024-01-10T09:39:59;100536.06;;;1.27;100.00
9717;BME280;4897;43.570;27.832;2024-01-10T09:42:26;100403.25;;;-0.45;100.00
9717;BME280;4897;43.570;27.832;2024-01-10T09:44:56;100429.53;;;0.34;100.00
9717;BME280;4897;43.570;27.832;2024-01-10T09:47:24;100304.59;;;-0.20;100.00
9717;BME280;4897;43.570;27.832;2024-01-10T09:49:52;100530.38;;;0.73;100.00
9717;BME280;4897;43.570;27.832;2024-01-10T09:52:24;100389.53;;;0.20;100.00
9717;BME280;4897;43.570;27.832;2024-01-10T09:54:54;100526.31;;;1.30;100.00
9717;BME280;4897;43.570;27.832;2024-01-10T09:57:22;100529.44;;;1.11;100.00
9717;BME280;4897;43.570;27.832;2024-01-10T09:59:49;100449.19;;;0.92;100.00
9717;BME280;4897;43.570;27.832;2024-01-10T10:02:18;100510.22;;;1.73;100.00
9717;BME280;4897;43.570;27.832;2024-01-10T10:04:54;100463.50;;;2.07;100.00
9717;BME280;4897;43.570;27.832;2024-01-10T10:07:23;100464.63;;;1.99;100.00
9717;BME280;4897;43.570;27.832;2024-01-10T10:09:54;100487.41;;;1.72;100.00
9717;BME280;4897;43.570;27.832;2024-01-10T10:12:22;100495.94;;;2.11;100.00
9717;BME280;4897;43.570;27.832;2024-01-10T10:14:49;100521.91;;;1.31;100.00
9717;BME280;4897;43.570;27.832;2024-01-10T10:17:20;100480.84;;;1.54;100.00
9717;BME280;4897;43.570;27.832;2024-01-10T10:19:47;100432.03;;;1.09;100.00
9717;BME280;4897;43.570;27.832;2024-01-10T10:22:14;100491.53;;;2.11;100.00
9717;BME280;4897;43.570;27.832;2024-01-10T10:24:41;100436.47;;;1.39;100.00
9717;BME280;4897;43.570;27.832;2024-01-10T10:27:11;100470.91;;;1.00;100.00
9717;BME280;4897;43.570;27.832;2024-01-10T10:29:39;100422.72;;;1.59;100.00
9717;BME280;4897;43.570;27.832;2024-01-10T10:32:06;100468.16;;;1.69;100.00
9717;BME280;4897;43.570;27.832;2024-01-10T10:34:34;100484.13;;;1.64;100.00
9717;BME280;4897;43.570;27.832;2024-01-10T10:37:01;100375.84;;;1.09;100.00
9717;BME280;4897;43.570;27.832;2024-01-10T10:39:28;100395.69;;;1.22;100.00
9717;BME280;4897;43.570;27.832;2024-01-10T10:41:56;100376.94;;;1.02;100.00
9717;BME280;4897;43.570;27.832;2024-01-10T10:44:27;100439.66;;;1.50;100.00
9717;BME280;4897;43.570;27.832;2024-01-10T10:47:03;100346.38;;;1.85;100.00
9717;BME280;4897;43.570;27.832;2024-01-10T10:49:31;100455.41;;;2.13;100.00
9717;BME280;4897;43.570;27.832;2024-01-10T10:52:00;100417.66;;;2.11;100.00
9717;BME280;4897;43.570;27.832;2024-01-10T10:54:28;100307.03;;;1.79;100.00
9717;BME280;4897;43.570;27.832;2024-01-10T10:56:58;100427.41;;;2.37;100.00
9717;BME280;4897;43.570;27.832;2024-01-10T10:59:29;100395.56;;;1.86;100.00
9717;BME280;4897;43.570;27.832;2024-01-10T11:01:58;100437.16;;;2.35;100.00
9717;BME280;4897;43.570;27.832;2024-01-10T11:04:25;100400.75;;;2.44;100.00
9717;BME280;4897;43.570;27.832;2024-01-10T11:06:53;100353.59;;;3.59;100.00
9717;BME280;4897;43.570;27.832;2024-01-10T11:09:22;100371.28;;;4.25;100.00
9717;BME280;4897;43.570;27.832;2024-01-10T11:12:11;100432.84;;;3.11;100.00
9717;BME280;4897;43.570;27.832;2024-01-10T11:15:09;100408.03;;;2.10;100.00
9717;BME280;4897;43.570;27.832;2024-01-10T11:17:57;100426.78;;;1.40;100.00
9717;BME280;4897;43.570;27.832;2024-01-10T11:20:43;100387.63;;;2.15;100.00
9717;BME280;4897;43.570;27.832;2024-01-10T11:23:37;100371.59;;;3.00;100.00
9717;BME280;4897;43.570;27.832;2024-01-10T11:26:07;100361.75;;;3.97;100.00
9717;BME280;4897;43.570;27.832;2024-01-10T11:28:36;100338.50;;;4.05;100.00
9717;BME280;4897;43.570;27.832;2024-01-10T11:31:06;100397.53;;;5.14;100.00
9717;BME280;4897;43.570;27.832;2024-01-10T11:33:34;100390.25;;;5.19;100.00
9717;BME280;4897;43.570;27.832;2024-01-10T11:36:09;100386.09;;;5.32;100.00
9717;BME280;4897;43.570;27.832;2024-01-10T11:38:44;100396.09;;;4.44;100.00
9717;BME280;4897;43.570;27.832;2024-01-10T11:41:13;100359.34;;;3.22;100.00
9717;BME280;4897;43.570;27.832;2024-01-10T11:43:41;100355.66;;;3.26;100.00
9717;BME280;4897;43.570;27.832;2024-01-10T11:46:12;100363.84;;;3.89;100.00
9717;BME280;4897;43.570;27.832;2024-01-10T11:48:39;100387.75;;;4.10;100.00
9717;BME280;4897;43.570;27.832;2024-01-10T11:51:07;100375.31;;;4.55;100.00
9717;BME280;4897;43.570;27.832;2024-01-10T11:53:41;100347.19;;;3.41;100.00
9717;BME280;4897;43.570;27.832;2024-01-10T11:56:12;100297.41;;;3.06;100.00
9717;BME280;4897;43.570;27.832;2024-01-10T11:59:01;100384.59;;;2.80;100.00
9717;BME280;4897;43.570;27.832;2024-01-10T12:01:31;100376.28;;;3.41;100.00
9717;BME280;4897;43.570;27.832;2024-01-10T12:04:00;100361.28;;;3.42;100.00
9717;BME280;4897;43.570;27.832;2024-01-10T12:06:27;100322.69;;;2.37;100.00
9717;BME280;4897;43.570;27.832;2024-01-10T12:08:54;100344.31;;;3.47;100.00
9717;BME280;4897;43.570;27.832;2024-01-10T12:11:23;100330.56;;;4.05;100.00
9717;BME280;4897;43.570;27.832;2024-01-10T12:13:50;100301.75;;;4.20;100.00
9717;BME280;4897;43.570;27.832;2024-01-10T12:16:17;100341.16;;;4.05;100.00
9717;BME280;4897;43.570;27.832;2024-01-10T12:18:46;100336.03;;;3.79;100.00
9717;BME280;4897;43.570;27.832;2024-01-10T12:21:13;100369.31;;;4.30;100.00
9717;BME280;4897;43.570;27.832;2024-01-10T12:23:43;100349.94;;;4.28;100.00
9717;BME280;4897;43.570;27.832;2024-01-10T12:26:10;100347.16;;;4.94;100.00
9717;BME280;4897;43.570;27.832;2024-01-10T12:28:38;100359.16;;;5.23;100.00
9717;BME280;4897;43.570;27.832;2024-01-10T12:31:06;100350.56;;;4.34;100.00
9717;BME280;4897;43.570;27.832;2024-01-10T12:33:34;100225.47;;;3.44;100.00
9717;BME280;4897;43.570;27.832;2024-01-10T12:36:08;100146.50;;;2.19;100.00
9717;BME280;4897;43.570;27.832;2024-01-10T12:38:36;100316.47;;;3.14;100.00
9717;BME280;4897;43.570;27.832;2024-01-10T12:41:04;100365.22;;;3.05;100.00
9717;BME280;4897;43.570;27.832;2024-01-10T12:43:34;100327.47;;;2.26;100.00
9717;BME280;4897;43.570;27.832;2024-01-10T12:46:05;100355.56;;;2.80;100.00
9717;BME280;4897;43.570;27.832;2024-01-10T12:48:33;100349.31;;;3.32;100.00
9717;BME280;4897;43.570;27.832;2024-01-10T12:51:02;100355.06;;;3.43;100.00
9717;BME280;4897;43.570;27.832;2024-01-10T12:53:35;100338.69;;;3.56;100.00
9717;BME280;4897;43.570;27.832;2024-01-10T12:56:02;100337.94;;;3.30;100.00
9717;BME280;4897;43.570;27.832;2024-01-10T12:58:30;100348.22;;;3.37;100.00